createdAt,value
2022-10-19T00:01:42.829Z,7.3
2022-10-19T00:11:43.203Z,7.1
2022-10-19T00:21:43.755Z,6.9
2022-10-19T00:31:44.375Z,6.8
2022-10-19T00:41:44.716Z,6.7
2022-10-19T00:51:45.246Z,6.6
2022-10-19T01:01:45.583Z,6.5
2022-10-19T01:11:45.808Z,6.3
2022-10-19T01:21:46.358Z,6.1
2022-10-19T01:31:47.115Z,6
2022-10-19T01:41:48.136Z,6
2022-10-19T01:51:49.091Z,6
2022-10-19T02:01:49.326Z,5.9
2022-10-19T02:11:49.726Z,5.9
2022-10-19T02:21:50.367Z,5.8
2022-10-19T02:31:50.544Z,5.7
2022-10-19T02:41:51.435Z,5.6
2022-10-19T02:51:52.432Z,5.7
2022-10-19T03:01:52.986Z,5.8
2022-10-19T03:11:53.657Z,5.7
2022-10-19T03:21:53.961Z,5.7
2022-10-19T03:31:54.503Z,5.7
2022-10-19T03:51:56.468Z,5.8
2022-10-19T04:01:57.188Z,5.9
2022-10-19T04:11:57.635Z,6.3
2022-10-19T04:21:58.622Z,6.4
2022-10-19T04:31:59.121Z,6.3
2022-10-19T04:41:59.759Z,6.6
2022-10-19T04:52:00.094Z,6.7
2022-10-19T05:02:00.604Z,6.8
2022-10-19T05:12:01.348Z,6.7
2022-10-19T05:22:01.999Z,6.7
2022-10-19T05:32:02.252Z,6.6
2022-10-19T05:42:02.547Z,6.5
2022-10-19T05:52:03.035Z,6.4
2022-10-19T06:02:03.389Z,6.4
2022-10-19T06:22:03.702Z,6.1
2022-10-19T06:32:04.599Z,6
2022-10-19T06:42:05.273Z,5.8
2022-10-19T06:52:05.682Z,5.7
2022-10-19T07:02:05.870Z,5.8
2022-10-19T07:12:05.961Z,6
2022-10-19T07:22:06.701Z,6.2
2022-10-19T07:32:07.000Z,6.5
2022-10-19T07:42:07.239Z,6.8
2022-10-19T07:52:07.604Z,7.1
2022-10-19T08:02:08.142Z,7.5
2022-10-19T08:12:12.447Z,7.8
2022-10-19T08:22:09.534Z,8.2
2022-10-19T08:32:09.981Z,8.6
2022-10-19T08:42:10.547Z,8.9
2022-10-19T08:52:10.995Z,9.1
2022-10-19T09:12:12.294Z,9.7
2022-10-19T09:22:13.188Z,10.1
2022-10-19T09:32:13.844Z,10.4
2022-10-19T09:42:13.897Z,10.9
2022-10-19T09:52:13.984Z,11.4
2022-10-19T10:02:14.835Z,11.9
2022-10-19T10:22:16.001Z,12.5
2022-10-19T10:32:16.839Z,12.6
2022-10-19T10:42:17.025Z,12.9
2022-10-19T10:52:17.588Z,13.1
2022-10-19T11:02:17.841Z,13.3
2022-10-19T11:12:18.002Z,13.5
2022-10-19T11:22:21.225Z,13.6
2022-10-19T11:32:19.144Z,13.6
2022-10-19T11:42:19.303Z,13.6
2022-10-19T11:52:19.425Z,13.9
2022-10-19T12:02:20.215Z,14.1
2022-10-19T12:12:20.363Z,14.2
2022-10-19T12:22:20.508Z,14.4
2022-10-19T12:32:21.516Z,14.7
2022-10-19T12:52:23.040Z,15.4
2022-10-19T13:02:23.335Z,15.5
2022-10-19T13:12:25.735Z,15.7
2022-10-19T13:22:24.714Z,16.1
2022-10-19T13:32:24.944Z,16.1
2022-10-19T13:42:25.993Z,15.9
2022-10-19T13:52:26.833Z,15.9
2022-10-19T14:02:27.509Z,15.7
2022-10-19T14:12:28.432Z,15.5
2022-10-19T14:22:29.109Z,15.7
2022-10-19T14:32:29.473Z,15.2
2022-10-19T14:42:29.927Z,14.8
2022-10-19T14:52:30.015Z,15
2022-10-19T15:02:31.234Z,14.9
2022-10-19T15:12:31.726Z,14.2
2022-10-19T15:22:32.535Z,13.8
2022-10-19T15:32:32.394Z,13.6
2022-10-19T15:42:32.722Z,13.4
2022-10-19T15:52:33.363Z,13.1
2022-10-19T16:12:33.970Z,12.6
2022-10-19T16:22:34.662Z,12.2
2022-10-19T16:32:35.457Z,12
2022-10-19T16:42:36.005Z,11.8
2022-10-19T17:02:36.423Z,11.4
2022-10-19T17:12:36.590Z,11.2
2022-10-19T17:12:58.082Z,11.2
2022-10-19T17:22:41.847Z,11
2022-10-19T17:32:42.519Z,10.9
2022-10-19T17:42:43.392Z,10.7
2022-10-19T17:52:44.096Z,10.6
2022-10-19T18:02:44.310Z,10.4
2022-10-19T18:12:45.071Z,10.3
2022-10-19T18:22:45.595Z,10.2
2022-10-19T18:32:45.793Z,10.1
2022-10-19T18:42:46.310Z,10
2022-10-19T18:52:46.453Z,9.8
2022-10-19T19:02:47.533Z,9.6
2022-10-19T19:12:48.019Z,9.5
2022-10-19T19:22:48.543Z,9.3
2022-10-19T19:32:48.692Z,9
2022-10-19T19:42:49.097Z,8.9
2022-10-19T20:12:50.102Z,8.5
2022-10-19T20:22:50.730Z,8.3
2022-10-19T20:32:51.040Z,8.2
2022-10-19T20:42:51.206Z,8
2022-10-19T20:52:51.804Z,7.8
2022-10-19T21:02:52.388Z,7.7
2022-10-19T21:12:52.905Z,7.5
2022-10-19T21:22:53.859Z,7.3
2022-10-19T21:32:54.239Z,7.2
2022-10-19T21:42:54.473Z,7.2
2022-10-19T21:52:54.846Z,7.1
2022-10-19T22:02:55.097Z,7.1
2022-10-19T22:12:55.153Z,7.1
2022-10-19T22:22:55.375Z,7
2022-10-19T22:32:55.973Z,6.8
2022-10-19T22:42:56.439Z,6.8
2022-10-19T22:52:56.567Z,6.8
2022-10-19T23:02:57.609Z,6.9
2022-10-19T23:12:58.203Z,6.9
2022-10-19T23:22:58.295Z,7
2022-10-19T23:32:58.589Z,6.7
2022-10-19T23:42:59.149Z,6.6
2022-10-19T23:52:59.863Z,6.5
